sensor_id;sensor_type;location;lat;lon;timestamp;P1;durP1;ratioP1;P2;durP2;ratioP2
73699;SDS011;62005;50.082;8.988;2023-03-19T00:16:50;7.15;;;3.05;;
73699;SDS011;62005;50.082;8.988;2023-03-19T00:19:23;7.63;;;2.97;;
73699;SDS011;62005;50.082;8.988;2023-03-19T00:22:35;6.28;;;2.75;;
73699;SDS011;62005;50.082;8.988;2023-03-19T00:28:27;8.68;;;2.58;;
73699;SDS011;62005;50.082;8.988;2023-03-19T00:31:18;5.40;;;2.10;;
73699;SDS011;62005;50.082;8.988;2023-03-19T00:34:21;5.03;;;2.45;;
73699;SDS011;62005;50.082;8.988;2023-03-19T00:40:42;7.35;;;2.90;;
73699;SDS011;62005;50.082;8.988;2023-03-19T00:47:13;8.35;;;3.67;;
73699;SDS011;62005;50.082;8.988;2023-03-19T00:50:14;9.05;;;3.22;;
73699;SDS011;62005;50.082;8.988;2023-03-19T00:56:52;9.57;;;4.03;;
73699;SDS011;62005;50.082;8.988;2023-03-19T01:03:06;7.47;;;4.35;;
73699;SDS011;62005;50.082;8.988;2023-03-19T01:05:58;10.23;;;4.45;;
73699;SDS011;62005;50.082;8.988;2023-03-19T01:08:42;8.18;;;4.25;;
73699;SDS011;62005;50.082;8.988;2023-03-19T01:14:56;11.80;;;5.28;;
73699;SDS011;62005;50.082;8.988;2023-03-19T01:17:30;12.85;;;5.18;;
73699;SDS011;62005;50.082;8.988;2023-03-19T01:20:04;9.68;;;4.88;;
73699;SDS011;62005;50.082;8.988;2023-03-19T01:26:00;8.70;;;4.20;;
73699;SDS011;62005;50.082;8.988;2023-03-19T01:31:47;7.50;;;3.15;;
73699;SDS011;62005;50.082;8.988;2023-03-19T01:34:16;7.57;;;3.42;;
73699;SDS011;62005;50.082;8.988;2023-03-19T01:36:51;9.02;;;3.22;;
73699;SDS011;62005;50.082;8.988;2023-03-19T01:39:34;4.50;;;2.70;;
73699;SDS011;62005;50.082;8.988;2023-03-19T01:42:26;6.05;;;3.22;;
73699;SDS011;62005;50.082;8.988;2023-03-19T01:44:54;6.55;;;3.10;;
73699;SDS011;62005;50.082;8.988;2023-03-19T01:47:37;6.93;;;3.25;;
73699;SDS011;62005;50.082;8.988;2023-03-19T01:53:36;9.55;;;3.47;;
73699;SDS011;62005;50.082;8.988;2023-03-19T01:56:35;8.90;;;3.45;;
73699;SDS011;62005;50.082;8.988;2023-03-19T02:05:05;6.40;;;3.03;;
73699;SDS011;62005;50.082;8.988;2023-03-19T02:08:24;6.60;;;3.10;;
73699;SDS011;62005;50.082;8.988;2023-03-19T02:11:23;5.88;;;3.03;;
73699;SDS011;62005;50.082;8.988;2023-03-19T02:17:20;4.80;;;2.78;;
73699;SDS011;62005;50.082;8.988;2023-03-19T02:27:19;4.78;;;2.78;;
73699;SDS011;62005;50.082;8.988;2023-03-19T02:37:13;5.38;;;2.78;;
73699;SDS011;62005;50.082;8.988;2023-03-19T02:43:08;4.70;;;2.53;;
73699;SDS011;62005;50.082;8.988;2023-03-19T02:46:26;8.13;;;2.45;;
73699;SDS011;62005;50.082;8.988;2023-03-19T02:49:23;4.53;;;2.33;;
73699;SDS011;62005;50.082;8.988;2023-03-19T02:52:44;7.93;;;2.50;;
73699;SDS011;62005;50.082;8.988;2023-03-19T02:55:21;7.40;;;2.90;;
73699;SDS011;62005;50.082;8.988;2023-03-19T03:00:44;5.85;;;2.22;;
73699;SDS011;62005;50.082;8.988;2023-03-19T03:03:20;4.18;;;1.92;;
73699;SDS011;62005;50.082;8.988;2023-03-19T03:06:07;4.78;;;2.03;;
73699;SDS011;62005;50.082;8.988;2023-03-19T03:15:29;6.25;;;2.45;;
73699;SDS011;62005;50.082;8.988;2023-03-19T03:22:15;5.18;;;2.65;;
73699;SDS011;62005;50.082;8.988;2023-03-19T03:41:03;7.22;;;3.15;;
73699;SDS011;62005;50.082;8.988;2023-03-19T03:43:43;7.28;;;2.80;;
73699;SDS011;62005;50.082;8.988;2023-03-19T03:55:50;8.13;;;2.30;;
73699;SDS011;62005;50.082;8.988;2023-03-19T03:58:25;7.55;;;2.80;;
73699;SDS011;62005;50.082;8.988;2023-03-19T04:01:26;4.78;;;2.53;;
73699;SDS011;62005;50.082;8.988;2023-03-19T04:07:07;4.72;;;2.83;;
73699;SDS011;62005;50.082;8.988;2023-03-19T04:10:04;4.57;;;2.58;;
73699;SDS011;62005;50.082;8.988;2023-03-19T04:16:12;11.05;;;3.10;;
73699;SDS011;62005;50.082;8.988;2023-03-19T04:25:43;5.57;;;2.50;;
73699;SDS011;62005;50.082;8.988;2023-03-19T04:28:45;6.70;;;3.25;;
73699;SDS011;62005;50.082;8.988;2023-03-19T04:31:55;7.07;;;3.45;;
73699;SDS011;62005;50.082;8.988;2023-03-19T04:34:56;7.15;;;3.03;;
73699;SDS011;62005;50.082;8.988;2023-03-19T04:37:47;6.90;;;2.72;;
73699;SDS011;62005;50.082;8.988;2023-03-19T04:40:47;9.60;;;3.08;;
73699;SDS011;62005;50.082;8.988;2023-03-19T04:46:39;7.40;;;3.00;;
73699;SDS011;62005;50.082;8.988;2023-03-19T04:53:12;6.38;;;3.47;;
73699;SDS011;62005;50.082;8.988;2023-03-19T04:56:35;7.28;;;3.03;;
73699;SDS011;62005;50.082;8.988;2023-03-19T05:03:20;7.05;;;2.63;;
73699;SDS011;62005;50.082;8.988;2023-03-19T05:06:16;5.47;;;2.72;;
73699;SDS011;62005;50.082;8.988;2023-03-19T05:09:19;7.80;;;3.58;;
73699;SDS011;62005;50.082;8.988;2023-03-19T05:12:19;6.07;;;3.03;;
73699;SDS011;62005;50.082;8.988;2023-03-19T05:15:15;9.52;;;2.58;;
73699;SDS011;62005;50.082;8.988;2023-03-19T05:18:21;5.90;;;2.63;;
73699;SDS011;62005;50.082;8.988;2023-03-19T05:33:57;9.63;;;3.10;;
73699;SDS011;62005;50.082;8.988;2023-03-19T05:36:41;7.72;;;2.50;;
73699;SDS011;62005;50.082;8.988;2023-03-19T05:42:48;10.93;;;3.00;;
73699;SDS011;62005;50.082;8.988;2023-03-19T05:45:14;6.22;;;2.70;;
73699;SDS011;62005;50.082;8.988;2023-03-19T05:47:41;10.00;;;3.03;;
73699;SDS011;62005;50.082;8.988;2023-03-19T05:54:28;4.97;;;3.08;;
73699;SDS011;62005;50.082;8.988;2023-03-19T06:07:50;5.97;;;2.25;;
73699;SDS011;62005;50.082;8.988;2023-03-19T06:16:46;9.30;;;2.30;;
73699;SDS011;62005;50.082;8.988;2023-03-19T06:22:35;7.20;;;2.78;;
73699;SDS011;62005;50.082;8.988;2023-03-19T06:30:54;6.95;;;3.05;;
73699;SDS011;62005;50.082;8.988;2023-03-19T06:33:29;6.05;;;3.13;;
73699;SDS011;62005;50.082;8.988;2023-03-19T06:36:08;6.68;;;2.55;;
73699;SDS011;62005;50.082;8.988;2023-03-19T06:42:30;5.85;;;2.28;;
73699;SDS011;62005;50.082;8.988;2023-03-19T06:48:56;5.25;;;2.65;;
73699;SDS011;62005;50.082;8.988;2023-03-19T07:08:36;5.80;;;2.97;;
73699;SDS011;62005;50.082;8.988;2023-03-19T07:21:00;5.88;;;3.33;;
73699;SDS011;62005;50.082;8.988;2023-03-19T07:29:55;6.78;;;2.88;;
73699;SDS011;62005;50.082;8.988;2023-03-19T07:35:16;8.25;;;2.35;;
73699;SDS011;62005;50.082;8.988;2023-03-19T07:38:01;5.63;;;2.53;;
73699;SDS011;62005;50.082;8.988;2023-03-19T07:57:55;6.72;;;2.63;;
73699;SDS011;62005;50.082;8.988;2023-03-19T08:01:08;5.22;;;2.83;;
73699;SDS011;62005;50.082;8.988;2023-03-19T08:04:06;7.95;;;2.40;;
73699;SDS011;62005;50.082;8.988;2023-03-19T08:06:37;7.57;;;3.35;;
73699;SDS011;62005;50.082;8.988;2023-03-19T08:09:04;7.97;;;2.40;;
73699;SDS011;62005;50.082;8.988;2023-03-19T08:11:29;5.40;;;2.90;;
73699;SDS011;62005;50.082;8.988;2023-03-19T08:13:57;4.03;;;2.60;;
73699;SDS011;62005;50.082;8.988;2023-03-19T08:16:24;6.25;;;2.45;;
73699;SDS011;62005;50.082;8.988;2023-03-19T08:18:52;4.00;;;2.17;;
73699;SDS011;62005;50.082;8.988;2023-03-19T08:21:24;4.20;;;1.42;;
73699;SDS011;62005;50.082;8.988;2023-03-19T08:23:49;4.68;;;1.42;;
73699;SDS011;62005;50.082;8.988;2023-03-19T08:26:16;4.07;;;1.48;;
73699;SDS011;62005;50.082;8.988;2023-03-19T08:28:51;4.22;;;1.33;;
73699;SDS011;62005;50.082;8.988;2023-03-19T08:31:17;2.72;;;1.15;;
73699;SDS011;62005;50.082;8.988;2023-03-19T08:36:47;2.20;;;1.05;;
73699;SDS011;62005;50.082;8.988;2023-03-19T08:39:24;3.60;;;1.00;;
73699;SDS011;62005;50.082;8.988;2023-03-19T08:42:10;3.92;;;1.30;;
73699;SDS011;62005;50.082;8.988;2023-03-19T08:44:45;3.60;;;1.25;;
73699;SDS011;62005;50.082;8.988;2023-03-19T08:47:20;3.22;;;1.75;;
73699;SDS011;62005;50.082;8.988;2023-03-19T08:50:03;3.63;;;1.40;;
73699;SDS011;62005;50.082;8.988;2023-03-19T08:55:54;3.78;;;1.25;;
73699;SDS011;62005;50.082;8.988;2023-03-19T09:06:26;2.72;;;1.10;;
73699;SDS011;62005;50.082;8.988;2023-03-19T09:19:12;3.33;;;1.20;;
73699;SDS011;62005;50.082;8.988;2023-03-19T09:22:31;6.00;;;1.25;;
73699;SDS011;62005;50.082;8.988;2023-03-19T09:25:47;3.38;;;0.80;;
73699;SDS011;62005;50.082;8.988;2023-03-19T09:28:33;3.70;;;0.90;;
73699;SDS011;62005;50.082;8.988;2023-03-19T09:34:06;5.40;;;0.98;;
73699;SDS011;62005;50.082;8.988;2023-03-19T09:37:01;3.75;;;1.25;;
73699;SDS011;62005;50.082;8.988;2023-03-19T09:49:15;2.00;;;0.75;;
73699;SDS011;62005;50.082;8.988;2023-03-19T09:55:51;4.78;;;0.82;;
73699;SDS011;62005;50.082;8.988;2023-03-19T09:59:00;2.85;;;1.00;;
73699;SDS011;62005;50.082;8.988;2023-03-19T10:01:33;1.85;;;0.80;;
73699;SDS011;62005;50.082;8.988;2023-03-19T10:07:16;3.08;;;0.70;;
73699;SDS011;62005;50.082;8.988;2023-03-19T10:16:00;4.75;;;0.80;;
73699;SDS011;62005;50.082;8.988;2023-03-19T10:18:57;2.00;;;0.60;;
73699;SDS011;62005;50.082;8.988;2023-03-19T10:27:12;4.10;;;0.80;;
73699;SDS011;62005;50.082;8.988;2023-03-19T10:29:41;3.08;;;0.70;;
73699;SDS011;62005;50.082;8.988;2023-03-19T10:35:07;2.97;;;1.05;;
73699;SDS011;62005;50.082;8.988;2023-03-19T10:37:42;2.10;;;0.60;;
73699;SDS011;62005;50.082;8.988;2023-03-19T10:40:29;3.05;;;0.57;;
73699;SDS011;62005;50.082;8.988;2023-03-19T10:43:37;5.22;;;1.00;;
73699;SDS011;62005;50.082;8.988;2023-03-19T10:46:15;4.22;;;0.82;;
73699;SDS011;62005;50.082;8.988;2023-03-19T10:49:14;3.33;;;0.75;;
73699;SDS011;62005;50.082;8.988;2023-03-19T10:51:44;2.90;;;0.80;;
73699;SDS011;62005;50.082;8.988;2023-03-19T11:01:06;3.85;;;0.82;;
73699;SDS011;62005;50.082;8.988;2023-03-19T11:04:30;2.90;;;0.50;;
73699;SDS011;62005;50.082;8.988;2023-03-19T11:07:47;4.90;;;0.63;;
73699;SDS011;62005;50.082;8.988;2023-03-19T11:10:00;2.10;;;0.60;;
73699;SDS011;62005;50.082;8.988;2023-03-19T11:12:32;2.20;;;0.50;;
73699;SDS011;62005;50.082;8.988;2023-03-19T11:15:31;2.53;;;0.65;;
73699;SDS011;62005;50.082;8.988;2023-03-19T11:18:34;2.78;;;0.50;;
73699;SDS011;62005;50.082;8.988;2023-03-19T11:24:20;5.30;;;0.55;;
73699;SDS011;62005;50.082;8.988;2023-03-19T11:27:15;2.72;;;0.57;;
73699;SDS011;62005;50.082;8.988;2023-03-19T11:29:58;4.97;;;0.70;;
73699;SDS011;62005;50.082;8.988;2023-03-19T11:35:21;3.80;;;0.65;;
73699;SDS011;62005;50.082;8.988;2023-03-19T11:38:19;2.20;;;0.70;;
73699;SDS011;62005;50.082;8.988;2023-03-19T11:41:08;4.57;;;0.75;;
73699;SDS011;62005;50.082;8.988;2023-03-19T12:16:40;2.92;;;0.30;;
73699;SDS011;62005;50.082;8.988;2023-03-19T12:25:08;4.03;;;0.60;;
73699;SDS011;62005;50.082;8.988;2023-03-19T12:43:01;2.65;;;0.45;;
73699;SDS011;62005;50.082;8.988;2023-03-19T12:45:49;4.13;;;0.85;;
73699;SDS011;62005;50.082;8.988;2023-03-19T12:48:28;2.83;;;0.95;;
73699;SDS011;62005;50.082;8.988;2023-03-19T12:51:26;2.42;;;0.60;;
73699;SDS011;62005;50.082;8.988;2023-03-19T12:54:02;4.20;;;0.55;;
73699;SDS011;62005;50.082;8.988;2023-03-19T12:56:45;4.15;;;0.68;;
73699;SDS011;62005;50.082;8.988;2023-03-19T12:59:15;3.10;;;0.95;;
73699;SDS011;62005;50.082;8.988;2023-03-19T13:02:11;3.17;;;0.80;;
73699;SDS011;62005;50.082;8.988;2023-03-19T13:11:32;3.25;;;0.70;;
73699;SDS011;62005;50.082;8.988;2023-03-19T13:14:16;3.63;;;0.93;;
73699;SDS011;62005;50.082;8.988;2023-03-19T13:19:50;2.90;;;0.73;;
73699;SDS011;62005;50.082;8.988;2023-03-19T13:22:30;3.97;;;0.93;;
73699;SDS011;62005;50.082;8.988;2023-03-19T13:25:39;2.42;;;0.90;;
73699;SDS011;62005;50.082;8.988;2023-03-19T13:28:32;2.95;;;0.68;;
73699;SDS011;62005;50.082;8.988;2023-03-19T13:31:16;2.55;;;0.52;;
73699;SDS011;62005;50.082;8.988;2023-03-19T13:36:54;2.90;;;0.93;;
73699;SDS011;62005;50.082;8.988;2023-03-19T13:39:50;2.00;;;0.85;;
73699;SDS011;62005;50.082;8.988;2023-03-19T13:42:38;3.20;;;0.60;;
73699;SDS011;62005;50.082;8.988;2023-03-19T13:51:03;2.97;;;0.63;;
73699;SDS011;62005;50.082;8.988;2023-03-19T13:53:53;3.17;;;0.52;;
73699;SDS011;62005;50.082;8.988;2023-03-19T13:56:31;2.80;;;0.63;;
73699;SDS011;62005;50.082;8.988;2023-03-19T15:03:12;2.10;;;0.28;;
73699;SDS011;62005;50.082;8.988;2023-03-19T15:32:35;6.55;;;1.17;;
73699;SDS011;62005;50.082;8.988;2023-03-19T15:49:01;2.75;;;0.90;;
73699;SDS011;62005;50.082;8.988;2023-03-19T15:51:33;2.55;;;0.95;;
73699;SDS011;62005;50.082;8.988;2023-03-19T15:53:59;5.30;;;1.80;;
73699;SDS011;62005;50.082;8.988;2023-03-19T15:56:26;2.78;;;1.00;;
73699;SDS011;62005;50.082;8.988;2023-03-19T15:58:56;4.20;;;1.98;;
73699;SDS011;62005;50.082;8.988;2023-03-19T16:59:55;2.03;;;0.20;;
73699;SDS011;62005;50.082;8.988;2023-03-19T17:02:22;2.60;;;1.00;;
73699;SDS011;62005;50.082;8.988;2023-03-19T17:11:43;2.20;;;0.90;;
73699;SDS011;62005;50.082;8.988;2023-03-19T17:14:16;2.92;;;0.75;;
73699;SDS011;62005;50.082;8.988;2023-03-19T17:16:49;2.65;;;1.08;;
73699;SDS011;62005;50.082;8.988;2023-03-19T17:19:22;1.52;;;0.30;;
73699;SDS011;62005;50.082;8.988;2023-03-19T17:21:56;2.45;;;0.40;;
73699;SDS011;62005;50.082;8.988;2023-03-19T17:24:23;2.30;;;0.30;;
73699;SDS011;62005;50.082;8.988;2023-03-19T17:26:51;3.70;;;0.82;;
73699;SDS011;62005;50.082;8.988;2023-03-19T17:29:17;1.48;;;0.60;;
73699;SDS011;62005;50.082;8.988;2023-03-19T17:31:44;1.95;;;0.40;;
73699;SDS011;62005;50.082;8.988;2023-03-19T17:34:11;1.92;;;0.68;;
73699;SDS011;62005;50.082;8.988;2023-03-19T17:36:41;2.08;;;0.55;;
73699;SDS011;62005;50.082;8.988;2023-03-19T17:39:12;2.78;;;0.70;;
73699;SDS011;62005;50.082;8.988;2023-03-19T17:41:37;3.23;;;0.80;;
73699;SDS011;62005;50.082;8.988;2023-03-19T17:44:03;3.13;;;0.93;;
73699;SDS011;62005;50.082;8.988;2023-03-19T17:46:29;2.10;;;1.02;;
73699;SDS011;62005;50.082;8.988;2023-03-19T17:48:57;3.53;;;0.98;;
73699;SDS011;62005;50.082;8.988;2023-03-19T17:51:22;3.03;;;0.63;;
73699;SDS011;62005;50.082;8.988;2023-03-19T17:53:52;2.35;;;1.02;;
73699;SDS011;62005;50.082;8.988;2023-03-19T17:56:19;1.13;;;0.43;;
73699;SDS011;62005;50.082;8.988;2023-03-19T17:58:47;1.00;;;0.30;;
73699;SDS011;62005;50.082;8.988;2023-03-19T18:01:14;1.10;;;0.30;;
73699;SDS011;62005;50.082;8.988;2023-03-19T18:03:42;1.13;;;0.20;;
73699;SDS011;62005;50.082;8.988;2023-03-19T18:06:18;2.13;;;0.52;;
73699;SDS011;62005;50.082;8.988;2023-03-19T18:08:45;1.73;;;0.60;;
73699;SDS011;62005;50.082;8.988;2023-03-19T18:11:11;2.92;;;0.50;;
73699;SDS011;62005;50.082;8.988;2023-03-19T18:16:32;1.92;;;0.50;;
73699;SDS011;62005;50.082;8.988;2023-03-19T18:22:27;2.10;;;0.45;;
73699;SDS011;62005;50.082;8.988;2023-03-19T18:25:20;1.35;;;0.80;;
73699;SDS011;62005;50.082;8.988;2023-03-19T18:27:49;3.95;;;0.50;;
73699;SDS011;62005;50.082;8.988;2023-03-19T18:30:16;4.22;;;0.52;;
73699;SDS011;62005;50.082;8.988;2023-03-19T18:32:45;1.48;;;0.43;;
73699;SDS011;62005;50.082;8.988;2023-03-19T18:35:17;2.58;;;0.80;;
73699;SDS011;62005;50.082;8.988;2023-03-19T18:37:45;3.95;;;1.52;;
73699;SDS011;62005;50.082;8.988;2023-03-19T18:40:13;3.65;;;1.58;;
73699;SDS011;62005;50.082;8.988;2023-03-19T18:42:41;4.57;;;1.83;;
73699;SDS011;62005;50.082;8.988;2023-03-19T18:45:06;4.00;;;1.70;;
73699;SDS011;62005;50.082;8.988;2023-03-19T18:47:32;7.38;;;2.13;;
73699;SDS011;62005;50.082;8.988;2023-03-19T18:49:58;8.77;;;3.22;;
73699;SDS011;62005;50.082;8.988;2023-03-19T18:52:34;3.97;;;1.60;;
73699;SDS011;62005;50.082;8.988;2023-03-19T18:55:49;2.08;;;0.80;;
73699;SDS011;62005;50.082;8.988;2023-03-19T18:58:33;2.28;;;1.17;;
73699;SDS011;62005;50.082;8.988;2023-03-19T19:01:17;6.18;;;2.63;;
73699;SDS011;62005;50.082;8.988;2023-03-19T19:03:55;4.65;;;1.80;;
73699;SDS011;62005;50.082;8.988;2023-03-19T19:06:25;4.50;;;1.83;;
73699;SDS011;62005;50.082;8.988;2023-03-19T19:08:58;3.33;;;1.10;;
73699;SDS011;62005;50.082;8.988;2023-03-19T19:11:33;3.67;;;1.33;;
73699;SDS011;62005;50.082;8.988;2023-03-19T19:19:03;6.55;;;2.13;;
73699;SDS011;62005;50.082;8.988;2023-03-19T19:21:35;4.63;;;2.17;;
73699;SDS011;62005;50.082;8.988;2023-03-19T19:24:03;4.50;;;2.28;;
73699;SDS011;62005;50.082;8.988;2023-03-19T19:26:46;5.82;;;2.08;;
73699;SDS011;62005;50.082;8.988;2023-03-19T19:32:11;5.85;;;2.50;;
73699;SDS011;62005;50.082;8.988;2023-03-19T19:35:23;6.15;;;2.55;;
73699;SDS011;62005;50.082;8.988;2023-03-19T19:38:01;6.05;;;2.72;;
73699;SDS011;62005;50.082;8.988;2023-03-19T19:40:30;5.65;;;3.10;;
73699;SDS011;62005;50.082;8.988;2023-03-19T19:42:56;7.72;;;3.17;;
73699;SDS011;62005;50.082;8.988;2023-03-19T19:47:53;10.13;;;4.88;;
73699;SDS011;62005;50.082;8.988;2023-03-19T19:50:31;11.45;;;4.68;;
73699;SDS011;62005;50.082;8.988;2023-03-19T19:53:07;8.50;;;3.85;;
73699;SDS011;62005;50.082;8.988;2023-03-19T19:55:38;6.35;;;3.45;;
73699;SDS011;62005;50.082;8.988;2023-03-19T20:01:27;11.95;;;5.28;;
73699;SDS011;62005;50.082;8.988;2023-03-19T20:09:29;15.18;;;6.35;;
73699;SDS011;62005;50.082;8.988;2023-03-19T20:12:30;11.65;;;4.80;;
73699;SDS011;62005;50.082;8.988;2023-03-19T20:14:59;6.70;;;3.53;;
73699;SDS011;62005;50.082;8.988;2023-03-19T20:17:36;7.43;;;3.30;;
73699;SDS011;62005;50.082;8.988;2023-03-19T20:20:18;5.93;;;2.28;;
73699;SDS011;62005;50.082;8.988;2023-03-19T20:22:50;8.32;;;3.20;;
73699;SDS011;62005;50.082;8.988;2023-03-19T20:25:31;8.32;;;3.00;;
73699;SDS011;62005;50.082;8.988;2023-03-19T20:28:01;7.63;;;3.25;;
73699;SDS011;62005;50.082;8.988;2023-03-19T20:30:38;7.40;;;3.15;;
73699;SDS011;62005;50.082;8.988;2023-03-19T20:33:32;6.47;;;3.05;;
73699;SDS011;62005;50.082;8.988;2023-03-19T20:36:21;7.00;;;2.60;;
73699;SDS011;62005;50.082;8.988;2023-03-19T20:39:08;5.50;;;2.33;;
73699;SDS011;62005;50.082;8.988;2023-03-19T20:41:37;7.82;;;2.45;;
73699;SDS011;62005;50.082;8.988;2023-03-19T20:44:34;19.95;;;7.75;;
73699;SDS011;62005;50.082;8.988;2023-03-19T20:50:26;6.68;;;2.80;;
73699;SDS011;62005;50.082;8.988;2023-03-19T20:53:16;6.00;;;2.47;;
73699;SDS011;62005;50.082;8.988;2023-03-19T20:56:02;6.53;;;2.20;;
73699;SDS011;62005;50.082;8.988;2023-03-19T21:01:41;6.75;;;3.17;;
73699;SDS011;62005;50.082;8.988;2023-03-19T21:04:25;10.23;;;4.15;;
73699;SDS011;62005;50.082;8.988;2023-03-19T21:07:08;8.35;;;4.72;;
73699;SDS011;62005;50.082;8.988;2023-03-19T21:10:12;9.45;;;4.78;;
73699;SDS011;62005;50.082;8.988;2023-03-19T21:13:30;12.13;;;5.70;;
73699;SDS011;62005;50.082;8.988;2023-03-19T21:16:38;14.07;;;5.60;;
73699;SDS011;62005;50.082;8.988;2023-03-19T21:19:15;10.32;;;5.22;;
73699;SDS011;62005;50.082;8.988;2023-03-19T21:21:43;21.52;;;7.75;;
73699;SDS011;62005;50.082;8.988;2023-03-19T21:24:23;11.52;;;4.38;;
73699;SDS011;62005;50.082;8.988;2023-03-19T21:27:08;10.30;;;4.65;;
73699;SDS011;62005;50.082;8.988;2023-03-19T21:32:51;7.28;;;3.70;;
73699;SDS011;62005;50.082;8.988;2023-03-19T21:36:02;8.27;;;4.30;;
73699;SDS011;62005;50.082;8.988;2023-03-19T21:38:36;7.55;;;4.10;;
73699;SDS011;62005;50.082;8.988;2023-03-19T21:41:29;8.43;;;3.65;;
73699;SDS011;62005;50.082;8.988;2023-03-19T21:44:17;6.65;;;3.80;;
73699;SDS011;62005;50.082;8.988;2023-03-19T21:49:49;6.50;;;2.97;;
73699;SDS011;62005;50.082;8.988;2023-03-19T21:52:41;3.85;;;2.47;;
73699;SDS011;62005;50.082;8.988;2023-03-19T21:55:35;6.25;;;2.65;;
73699;SDS011;62005;50.082;8.988;2023-03-19T21:58:16;8.13;;;2.97;;
73699;SDS011;62005;50.082;8.988;2023-03-19T22:01:02;4.90;;;3.15;;
73699;SDS011;62005;50.082;8.988;2023-03-19T22:03:42;7.60;;;2.95;;
73699;SDS011;62005;50.082;8.988;2023-03-19T22:06:27;6.00;;;2.50;;
73699;SDS011;62005;50.082;8.988;2023-03-19T22:09:09;5.00;;;2.65;;
73699;SDS011;62005;50.082;8.988;2023-03-19T22:11:45;6.55;;;2.72;;
73699;SDS011;62005;50.082;8.988;2023-03-19T22:17:21;6.07;;;2.63;;
73699;SDS011;62005;50.082;8.988;2023-03-19T22:26:38;5.10;;;2.38;;
73699;SDS011;62005;50.082;8.988;2023-03-19T22:32:58;4.97;;;2.33;;
73699;SDS011;62005;50.082;8.988;2023-03-19T22:36:12;6.72;;;2.88;;
73699;SDS011;62005;50.082;8.988;2023-03-19T22:38:38;4.70;;;2.38;;
73699;SDS011;62005;50.082;8.988;2023-03-19T22:47:40;5.07;;;2.08;;
73699;SDS011;62005;50.082;8.988;2023-03-19T22:50:38;4.20;;;2.70;;
73699;SDS011;62005;50.082;8.988;2023-03-19T22:56:19;4.85;;;2.25;;
73699;SDS011;62005;50.082;8.988;2023-03-19T22:58:53;5.13;;;3.40;;
73699;SDS011;62005;50.082;8.988;2023-03-19T23:01:42;4.68;;;2.53;;
73699;SDS011;62005;50.082;8.988;2023-03-19T23:04:19;5.43;;;2.42;;
73699;SDS011;62005;50.082;8.988;2023-03-19T23:09:56;4.88;;;2.10;;
73699;SDS011;62005;50.082;8.988;2023-03-19T23:12:29;4.47;;;2.00;;
73699;SDS011;62005;50.082;8.988;2023-03-19T23:17:56;4.05;;;1.85;;
73699;SDS011;62005;50.082;8.988;2023-03-19T23:23:30;5.68;;;1.90;;
73699;SDS011;62005;50.082;8.988;2023-03-19T23:26:23;5.07;;;1.75;;
73699;SDS011;62005;50.082;8.988;2023-03-19T23:29:05;3.85;;;1.60;;
73699;SDS011;62005;50.082;8.988;2023-03-19T23:31:33;5.22;;;1.75;;
73699;SDS011;62005;50.082;8.988;2023-03-19T23:34:08;3.75;;;1.58;;
73699;SDS011;62005;50.082;8.988;2023-03-19T23:36:54;5.75;;;2.72;;
73699;SDS011;62005;50.082;8.988;2023-03-19T23:41:54;5.50;;;2.17;;
73699;SDS011;62005;50.082;8.988;2023-03-19T23:44:46;3.83;;;1.67;;
73699;SDS011;62005;50.082;8.988;2023-03-19T23:47:40;4.63;;;1.83;;
73699;SDS011;62005;50.082;8.988;2023-03-19T23:50:39;3.58;;;1.50;;
73699;SDS011;62005;50.082;8.988;2023-03-19T23:53:15;3.10;;;1.50;;
73699;SDS011;62005;50.082;8.988;2023-03-19T23:56:01;4.22;;;1.50;;
